Time;durP1;ratioP1;P1;durP2;ratioP2;P2;SDS_P1;SDS_P2;PMS_P1;PMS_P2;Temp;Humidity;BMP_temperature;BMP_pressure;BME280_temperature;BME280_humidity;BME280_pressure;Samples;Min_cycle;Max_cycle;Signal;HPM_P1;HPM_P2
2022/07/30 00:02:17;;;;;;;7.78;4.68;;;18.00;74.60;;;;;;5052975;28;20033;-38
2022/07/30 00:04:44;;;;;;;8.00;5.50;;;17.90;74.40;;;;;;5052998;28;20384;-39
2022/07/30 00:07:09;;;;;;;14.45;4.60;;;17.90;74.60;;;;;;5051220;28;20025;-38
2022/07/30 00:09:35;;;;;;;9.07;4.50;;;17.90;74.60;;;;;;5051252;28;20029;-38
2022/07/30 00:12:01;;;;;;;7.53;5.05;;;17.90;74.70;;;;;;5052716;28;20036;-39
2022/07/30 00:14:27;;;;;;;5.18;4.18;;;17.90;74.70;;;;;;5053433;28;20362;-37
2022/07/30 00:16:53;;;;;;;5.78;4.22;;;18.00;74.20;;;;;;5052723;28;20024;-38
2022/07/30 00:19:19;;;;;;;7.03;4.43;;;18.00;73.90;;;;;;5053028;28;20102;-38
2022/07/30 00:21:45;;;;;;;9.02;4.40;;;17.80;74.10;;;;;;5053331;28;20111;-38
2022/07/30 00:24:10;;;;;;;5.60;4.82;;;17.80;74.50;;;;;;5053169;28;20050;-38
2022/07/30 00:26:36;;;;;;;9.27;4.63;;;17.80;74.60;;;;;;5052932;28;20021;-39
2022/07/30 00:29:03;;;;;;;5.90;4.03;;;17.70;74.80;;;;;;5052739;28;20103;-38
2022/07/30 00:31:29;;;;;;;8.32;4.82;;;17.70;74.80;;;;;;5053055;28;20388;-38
2022/07/30 00:33:55;;;;;;;8.93;5.15;;;17.70;74.80;;;;;;5054290;28;20056;-39
2022/07/30 00:36:20;;;;;;;9.95;4.35;;;17.70;74.70;;;;;;5055227;28;20399;-38
2022/07/30 00:38:46;;;;;;;5.60;4.78;;;17.70;74.70;;;;;;5056197;28;20029;-38
2022/07/30 00:41:12;;;;;;;8.02;5.07;;;17.70;74.90;;;;;;5055410;28;20029;-39
2022/07/30 00:43:37;;;;;;;12.50;4.68;;;17.70;74.90;;;;;;5056833;28;20151;-46
2022/07/30 00:46:03;;;;;;;7.80;4.65;;;17.70;75.20;;;;;;5056486;28;20059;-40
2022/07/30 00:48:28;;;;;;;14.32;5.25;;;17.60;75.60;;;;;;5056218;28;20076;-39
2022/07/30 00:50:54;;;;;;;9.77;4.72;;;17.50;76.30;;;;;;5056372;28;20369;-39
2022/07/30 00:53:20;;;;;;;9.65;5.00;;;17.30;77.10;;;;;;5056531;28;20440;-39
2022/07/30 00:55:45;;;;;;;8.05;5.30;;;17.20;78.00;;;;;;5056476;28;20074;-40
2022/07/30 00:58:11;;;;;;;8.75;4.72;;;17.20;78.30;;;;;;5054633;28;20025;-40
2022/07/30 01:00:36;;;;;;;6.90;5.13;;;17.10;78.50;;;;;;5055656;28;20048;-39
2022/07/30 01:03:03;;;;;;;7.80;4.65;;;17.00;78.60;;;;;;5055572;28;20037;-39
2022/07/30 01:05:29;;;;;;;9.30;5.40;;;16.90;78.80;;;;;;5055602;28;20047;-39
2022/07/30 01:07:55;;;;;;;10.57;4.90;;;16.80;79.20;;;;;;5055607;28;20029;-46
2022/07/30 01:10:20;;;;;;;13.00;6.38;;;16.80;79.60;;;;;;5055694;28;20017;-38
2022/07/30 01:12:46;;;;;;;8.13;4.97;;;16.80;79.60;;;;;;5055722;28;20029;-38
2022/07/30 01:15:12;;;;;;;6.20;4.47;;;16.80;79.90;;;;;;5055323;28;20033;-38
2022/07/30 01:17:38;;;;;;;6.68;4.07;;;16.70;79.90;;;;;;5055334;28;20036;-39
2022/07/30 01:20:12;;;;;;;11.25;6.80;;;16.70;80.00;;;;;;5055234;28;20025;-38
2022/07/30 01:22:50;;;;;;;6.88;5.05;;;16.60;80.10;;;;;;5055728;28;20100;-38
2022/07/30 01:25:51;;;;;;;6.45;5.63;;;16.50;80.30;;;;;;5055466;28;20422;-38
2022/07/30 01:28:22;;;;;;;12.05;6.65;;;16.40;80.70;;;;;;5040000;28;20032;-39
2022/07/30 01:30:49;;;;;;;8.43;4.90;;;16.30;81.30;;;;;;5053811;28;20040;-39
2022/07/30 01:33:22;;;;;;;11.05;5.72;;;16.30;81.20;;;;;;5053742;28;20021;-38
2022/07/30 01:35:49;;;;;;;6.85;5.03;;;16.30;81.20;;;;;;5056084;28;20029;-38
2022/07/30 01:38:20;;;;;;;6.03;4.88;;;16.20;81.20;;;;;;5053746;28;20029;-38
2022/07/30 01:40:48;;;;;;;10.70;6.10;;;16.20;81.40;;;;;;5055123;28;20389;-38
2022/07/30 01:43:16;;;;;;;23.95;8.27;;;16.10;81.70;;;;;;5055034;28;20021;-39
2022/07/30 01:45:43;;;;;;;7.30;5.97;;;16.10;82.00;;;;;;5054740;28;20100;-39
2022/07/30 01:48:10;;;;;;;15.23;7.22;;;16.00;82.00;;;;;;5054605;28;20088;-39
2022/07/30 01:50:39;;;;;;;8.43;5.85;;;15.90;82.60;;;;;;5054751;28;20017;-38
2022/07/30 01:53:06;;;;;;;7.50;5.55;;;15.80;82.80;;;;;;5054942;28;20017;-38
2022/07/30 01:55:35;;;;;;;7.82;5.38;;;15.80;82.80;;;;;;5054657;28;20021;-38
2022/07/30 01:58:03;;;;;;;8.98;5.32;;;15.90;82.50;;;;;;5054644;28;20388;-39
2022/07/30 02:00:31;;;;;;;11.05;6.35;;;15.90;82.50;;;;;;5054817;28;20036;-39
2022/07/30 02:02:58;;;;;;;14.73;5.65;;;16.00;82.50;;;;;;5053099;28;20029;-38
2022/07/30 02:05:25;;;;;;;10.10;5.32;;;16.00;82.40;;;;;;5053179;28;20123;-38
2022/07/30 02:08:00;;;;;;;9.38;5.60;;;16.00;82.60;;;;;;5054346;28;20029;-38
2022/07/30 02:10:50;;;;;;;8.65;6.20;;;16.00;82.50;;;;;;5054587;28;20074;-38
2022/07/30 02:13:24;;;;;;;11.85;6.65;;;15.90;82.60;;;;;;5054771;28;20392;-39
2022/07/30 02:15:55;;;;;;;10.57;6.50;;;15.80;82.70;;;;;;5054457;28;20025;-39
2022/07/30 02:18:31;;;;;;;18.35;7.00;;;15.80;82.70;;;;;;5054060;28;20033;-39
2022/07/30 02:21:05;;;;;;;12.02;5.55;;;15.70;83.10;;;;;;5053199;28;20044;-38
2022/07/30 02:23:37;;;;;;;8.90;6.38;;;15.60;83.40;;;;;;5054862;28;20021;-38
2022/07/30 02:26:04;;;;;;;10.23;6.57;;;15.50;83.90;;;;;;5054362;28;20385;-38
2022/07/30 02:28:33;;;;;;;9.27;7.35;;;15.40;84.00;;;;;;5054487;28;20025;-38
2022/07/30 02:31:00;;;;;;;12.23;6.68;;;15.30;84.40;;;;;;5053900;28;20017;-38
2022/07/30 02:33:29;;;;;;;10.82;8.02;;;15.20;85.00;;;;;;5054117;28;20100;-38
2022/07/30 02:35:58;;;;;;;10.37;8.30;;;15.30;85.30;;;;;;5053838;28;20036;-38
2022/07/30 02:38:26;;;;;;;16.08;7.80;;;15.30;84.90;;;;;;5054025;28;20035;-39
2022/07/30 02:40:56;;;;;;;11.25;7.97;;;15.30;85.10;;;;;;5053871;28;20037;-39
2022/07/30 02:43:24;;;;;;;11.63;8.70;;;15.30;85.10;;;;;;5053741;28;20358;-42
2022/07/30 02:45:51;;;;;;;12.05;8.40;;;15.30;85.30;;;;;;5052555;28;20268;-39
2022/07/30 02:48:19;;;;;;;11.48;8.63;;;15.30;85.10;;;;;;5053424;28;20098;-39
2022/07/30 02:50:48;;;;;;;11.30;8.50;;;15.30;85.20;;;;;;5054095;28;20033;-40
2022/07/30 02:53:15;;;;;;;12.50;8.38;;;15.40;85.00;;;;;;5053485;28;20021;-38
2022/07/30 02:55:44;;;;;;;15.52;9.75;;;15.40;85.00;;;;;;5053380;28;20444;-38
2022/07/30 02:58:11;;;;;;;15.35;9.48;;;15.40;84.80;;;;;;5052983;28;20032;-38
2022/07/30 03:00:38;;;;;;;12.93;9.40;;;15.40;85.10;;;;;;5052102;28;20074;-39
2022/07/30 03:03:08;;;;;;;15.95;8.98;;;15.40;85.10;;;;;;5053325;28;20090;-38
2022/07/30 03:05:36;;;;;;;14.18;9.57;;;15.50;85.00;;;;;;5053437;28;20142;-39
2022/07/30 03:08:03;;;;;;;11.52;9.23;;;15.50;84.90;;;;;;5053295;28;20112;-38
2022/07/30 03:10:30;;;;;;;11.95;9.43;;;15.60;84.70;;;;;;5053196;28;20021;-38
2022/07/30 03:12:58;;;;;;;12.60;9.30;;;15.60;85.10;;;;;;5053686;28;20027;-40
2022/07/30 03:15:25;;;;;;;14.23;8.65;;;15.60;84.90;;;;;;5053057;28;20021;-39
2022/07/30 03:17:53;;;;;;;14.15;10.18;;;15.60;84.80;;;;;;5053383;28;20029;-38
2022/07/30 03:20:22;;;;;;;11.65;8.95;;;15.50;85.00;;;;;;5053371;28;20032;-39
2022/07/30 03:22:51;;;;;;;13.32;9.15;;;15.50;85.10;;;;;;5053043;28;20044;-39
2022/07/30 03:25:22;;;;;;;16.70;11.07;;;15.50;85.20;;;;;;5053201;28;20530;-38
2022/07/30 03:27:49;;;;;;;11.05;8.05;;;15.50;85.20;;;;;;5052979;28;20275;-38
2022/07/30 03:30:14;;;;;;;12.52;9.43;;;15.40;85.10;;;;;;5052968;28;20381;-39
2022/07/30 03:32:41;;;;;;;14.32;9.15;;;15.30;85.60;;;;;;5051675;28;20028;-39
2022/07/30 19:42:33;;;;;;;3.05;2.42;;;23.50;49.70;;;;;;5091511;28;20948;-39
2022/07/30 19:44:59;;;;;;;5.90;2.50;;;23.40;50.00;;;;;;5091317;28;20052;-40
2022/07/30 19:47:31;;;;;;;2.60;1.95;;;23.50;50.00;;;;;;5090363;28;20021;-48
2022/07/30 19:49:57;;;;;;;3.72;2.03;;;23.50;49.90;;;;;;5089694;28;20029;-47
2022/07/30 19:52:26;;;;;;;3.08;2.03;;;23.50;50.20;;;;;;5090112;28;20032;-40
2022/07/30 19:54:52;;;;;;;4.63;1.98;;;23.40;50.80;;;;;;5090360;28;20384;-43
2022/07/30 19:57:18;;;;;;;3.67;2.00;;;23.40;50.90;;;;;;5087612;28;20047;-47
2022/07/30 19:59:44;;;;;;;5.65;2.53;;;23.30;51.10;;;;;;5091036;28;20028;-47
2022/07/30 20:02:11;;;;;;;4.57;2.20;;;23.30;51.10;;;;;;5090320;28;20030;-46
2022/07/30 20:04:37;;;;;;;5.57;3.13;;;23.30;50.80;;;;;;5089157;28;20059;-48
2022/07/30 20:07:03;;;;;;;4.95;2.90;;;23.30;50.80;;;;;;5090533;28;20436;-46
2022/07/30 20:09:29;;;;;;;6.03;3.30;;;23.30;50.90;;;;;;5090508;28;20031;-47
2022/07/30 20:11:57;;;;;;;7.05;3.10;;;23.30;51.00;;;;;;5088943;28;20073;-47
2022/07/30 20:14:23;;;;;;;4.80;3.17;;;23.20;51.20;;;;;;5090096;28;20024;-47
2022/07/30 20:16:49;;;;;;;3.30;2.00;;;23.20;51.40;;;;;;5090144;28;20077;-47
2022/07/30 20:19:15;;;;;;;6.65;2.63;;;23.20;51.30;;;;;;5088773;28;20101;-46
2022/07/30 20:21:42;;;;;;;4.35;2.63;;;23.20;51.60;;;;;;5088604;28;20050;-47
2022/07/30 20:24:08;;;;;;;3.88;2.45;;;23.10;51.70;;;;;;5088608;28;20024;-48
2022/07/30 20:26:34;;;;;;;3.55;2.20;;;23.10;51.80;;;;;;5088577;28;20032;-47
2022/07/30 20:29:00;;;;;;;5.10;2.63;;;23.10;52.20;;;;;;5089993;28;20125;-47
2022/07/30 20:31:26;;;;;;;4.10;2.10;;;23.10;52.90;;;;;;5090233;28;20059;-48
2022/07/30 20:33:55;;;;;;;4.90;2.88;;;23.00;52.60;;;;;;5088474;28;20387;-49
2022/07/30 20:36:21;;;;;;;5.82;2.70;;;23.00;53.00;;;;;;5089821;28;20027;-48
2022/07/30 20:38:51;;;;;;;6.22;2.33;;;22.90;53.10;;;;;;5088510;28;20077;-46
2022/07/30 20:41:19;;;;;;;4.63;2.33;;;22.90;53.30;;;;;;5088273;28;20480;-47
2022/07/30 20:43:47;;;;;;;2.67;1.92;;;22.80;53.50;;;;;;5088265;28;20024;-46
2022/07/30 20:46:14;;;;;;;2.35;2.00;;;22.80;53.50;;;;;;5088368;28;20035;-48
2022/07/30 20:48:40;;;;;;;3.05;1.70;;;22.80;53.60;;;;;;5089015;28;20433;-48
2022/07/30 20:51:07;;;;;;;2.30;1.70;;;22.70;53.60;;;;;;5088315;28;20430;-47
2022/07/30 20:53:34;;;;;;;4.82;1.70;;;22.60;53.90;;;;;;5077820;28;20021;-45
2022/07/30 20:55:59;;;;;;;4.68;2.28;;;22.60;54.00;;;;;;5075926;28;20045;-50
2022/07/30 20:58:28;;;;;;;3.10;2.00;;;22.70;54.00;;;;;;5074843;28;20067;-48
2022/07/30 21:00:56;;;;;;;2.80;2.28;;;22.60;54.00;;;;;;5074590;28;20036;-47
2022/07/30 21:03:22;;;;;;;5.03;2.67;;;22.60;54.00;;;;;;5074580;28;20024;-47
2022/07/30 21:05:49;;;;;;;5.50;2.40;;;22.60;54.10;;;;;;5075732;28;20520;-47
2022/07/30 21:08:15;;;;;;;2.35;2.00;;;22.50;54.20;;;;;;5076026;28;20119;-46
2022/07/30 21:10:59;;;;;;;7.40;1.88;;;22.50;54.30;;;;;;5074410;28;20406;-48
2022/07/30 21:13:25;;;;;;;4.05;1.85;;;22.60;54.30;;;;;;5075994;28;20025;-48
2022/07/30 21:15:51;;;;;;;2.72;1.98;;;22.60;54.50;;;;;;5074126;28;20132;-48
2022/07/30 21:18:32;;;;;;;8.50;5.20;;;22.50;54.70;;;;;;5074699;28;20107;-48
2022/07/30 21:20:58;;;;;;;5.22;2.10;;;22.50;55.00;;;;;;5075829;28;20032;-47
2022/07/30 21:23:25;;;;;;;3.92;1.77;;;22.40;55.00;;;;;;5074108;28;20029;-46
2022/07/30 21:25:54;;;;;;;2.55;2.00;;;22.40;54.80;;;;;;5075202;28;20158;-48
2022/07/30 21:28:20;;;;;;;9.90;2.05;;;22.40;54.70;;;;;;5075517;28;20107;-47
2022/07/30 21:30:52;;;;;;;4.55;1.67;;;22.40;54.80;;;;;;5075434;28;20032;-47
2022/07/30 21:33:18;;;;;;;3.30;2.10;;;22.40;54.60;;;;;;5075509;28;20024;-46
2022/07/30 21:35:43;;;;;;;4.03;1.60;;;22.30;54.90;;;;;;5075024;28;20170;-47
2022/07/30 21:38:09;;;;;;;4.80;2.15;;;22.30;55.10;;;;;;5075257;28;20107;-49
2022/07/30 21:40:34;;;;;;;4.30;2.15;;;22.30;55.20;;;;;;5074930;28;20050;-49
2022/07/30 21:43:00;;;;;;;4.55;2.20;;;22.30;55.60;;;;;;5075390;28;20082;-48
2022/07/30 21:45:26;;;;;;;4.15;1.90;;;22.30;55.70;;;;;;5075115;28;20021;-48
2022/07/30 21:47:51;;;;;;;3.35;2.00;;;22.30;55.90;;;;;;5074926;28;20085;-46
2022/07/30 21:50:17;;;;;;;4.55;1.70;;;22.20;55.90;;;;;;5075255;28;20422;-48
2022/07/30 21:52:43;;;;;;;3.85;1.55;;;22.20;56.10;;;;;;5074986;28;20472;-47
2022/07/30 21:55:09;;;;;;;3.17;2.08;;;22.10;56.10;;;;;;5074732;28;20474;-48
2022/07/30 21:57:36;;;;;;;4.57;1.90;;;22.20;56.00;;;;;;5074768;28;20095;-47
2022/07/30 22:00:08;;;;;;;4.43;2.15;;;22.20;56.00;;;;;;5074641;28;20021;-47
2022/07/30 22:02:34;;;;;;;4.60;2.20;;;22.20;55.90;;;;;;5075189;28;20112;-47
2022/07/30 22:05:00;;;;;;;4.65;2.50;;;22.10;55.70;;;;;;5074626;28;20417;-47
2022/07/30 22:07:26;;;;;;;4.88;2.03;;;22.10;55.60;;;;;;5075293;28;20370;-48
2022/07/30 22:09:52;;;;;;;4.40;1.80;;;22.20;55.40;;;;;;5073786;28;20047;-49
2022/07/30 22:12:18;;;;;;;3.90;1.95;;;22.20;55.40;;;;;;5073473;28;20025;-47
2022/07/30 22:14:44;;;;;;;5.03;2.40;;;22.10;55.40;;;;;;5074367;28;20025;-49
2022/07/30 22:17:10;;;;;;;3.80;1.67;;;22.10;55.20;;;;;;5074436;28;20067;-46
2022/07/30 22:19:37;;;;;;;4.60;1.67;;;22.10;55.20;;;;;;5074564;28;20361;-47
2022/07/30 22:22:03;;;;;;;6.93;2.53;;;22.10;55.40;;;;;;5072661;28;20032;-47
2022/07/30 22:24:28;;;;;;;3.35;2.17;;;22.20;55.00;;;;;;5073790;28;20498;-47
2022/07/30 22:26:54;;;;;;;3.28;1.88;;;22.10;55.00;;;;;;5073834;28;20031;-47
2022/07/30 22:29:20;;;;;;;2.70;2.13;;;22.10;54.90;;;;;;5073723;28;20119;-47
2022/07/30 22:31:45;;;;;;;3.35;1.77;;;22.20;54.80;;;;;;5073929;28;20060;-48
2022/07/30 22:34:11;;;;;;;4.32;1.98;;;22.20;54.70;;;;;;5073921;28;20048;-46
2022/07/30 22:36:37;;;;;;;9.23;1.73;;;22.10;54.70;;;;;;5073717;28;20020;-46
2022/07/30 22:39:03;;;;;;;7.60;1.73;;;22.20;54.80;;;;;;5073910;28;20042;-46
2022/07/30 22:41:28;;;;;;;7.22;1.80;;;22.10;54.90;;;;;;5072230;28;20045;-47
2022/07/30 22:43:54;;;;;;;3.95;1.67;;;22.10;55.10;;;;;;5072431;28;20103;-46
2022/07/30 22:46:19;;;;;;;2.80;1.90;;;22.10;55.10;;;;;;5073634;28;20353;-47
2022/07/30 22:48:45;;;;;;;3.20;1.90;;;22.00;55.20;;;;;;5073770;28;20021;-48
2022/07/30 22:51:11;;;;;;;2.67;1.88;;;22.00;55.40;;;;;;5073608;28;20032;-47
2022/07/30 22:53:36;;;;;;;1.70;1.58;;;22.00;55.60;;;;;;5074024;28;20028;-47
2022/07/30 22:56:04;;;;;;;7.88;2.42;;;21.80;55.80;;;;;;5073395;28;20039;-45
2022/07/30 22:58:30;;;;;;;3.72;2.33;;;21.80;56.00;;;;;;5073462;28;20485;-46
2022/07/30 23:00:55;;;;;;;2.92;2.25;;;21.80;56.20;;;;;;5073392;28;20113;-46
2022/07/30 23:03:21;;;;;;;2.47;2.10;;;21.80;56.20;;;;;;5073370;28;20017;-46
2022/07/30 23:05:47;;;;;;;7.15;2.30;;;21.80;56.50;;;;;;5073458;28;20025;-46
2022/07/30 23:08:12;;;;;;;4.78;1.85;;;21.70;56.40;;;;;;5073548;28;20554;-46
2022/07/30 23:10:38;;;;;;;3.05;1.63;;;21.70;56.50;;;;;;5073272;28;20056;-47
2022/07/30 23:13:04;;;;;;;4.68;1.60;;;21.70;56.60;;;;;;5072036;28;20028;-47
2022/07/30 23:15:29;;;;;;;3.90;2.03;;;21.70;56.70;;;;;;5073938;28;20319;-47
2022/07/30 23:17:55;;;;;;;5.15;2.42;;;21.60;56.90;;;;;;5073145;28;20561;-48
2022/07/30 23:20:21;;;;;;;5.90;1.58;;;21.60;57.10;;;;;;5073067;28;20032;-46
2022/07/30 23:22:47;;;;;;;2.42;2.15;;;21.60;57.20;;;;;;5073220;28;20021;-47
2022/07/30 23:25:13;;;;;;;1.48;1.38;;;21.60;57.20;;;;;;5073069;28;20024;-47
2022/07/30 23:27:40;;;;;;;3.75;1.83;;;21.50;57.20;;;;;;5073511;28;20100;-48
2022/07/30 23:30:07;;;;;;;2.05;1.65;;;21.50;57.10;;;;;;5073067;28;20021;-48
2022/07/30 23:32:33;;;;;;;1.63;1.45;;;21.60;57.00;;;;;;5073031;28;20480;-46
2022/07/30 23:34:58;;;;;;;3.03;1.88;;;21.50;57.00;;;;;;5073296;28;20089;-46
2022/07/30 23:37:24;;;;;;;2.92;2.40;;;21.50;57.20;;;;;;5073234;28;20492;-47
2022/07/30 23:39:50;;;;;;;3.67;1.73;;;21.50;57.20;;;;;;5071929;28;20020;-47
2022/07/30 23:42:16;;;;;;;3.95;2.72;;;21.50;57.30;;;;;;5072776;28;20039;-46
2022/07/30 23:44:41;;;;;;;3.28;1.60;;;21.40;57.30;;;;;;5072876;28;20134;-46
2022/07/30 23:47:07;;;;;;;2.33;1.58;;;21.40;57.50;;;;;;5071660;28;20025;-47
2022/07/30 23:49:33;;;;;;;2.75;1.90;;;21.40;57.60;;;;;;5072871;28;20024;-48
2022/07/30 23:51:58;;;;;;;6.07;1.85;;;21.30;57.70;;;;;;5073083;28;20024;-47
2022/07/30 23:54:24;;;;;;;4.55;1.75;;;21.30;58.10;;;;;;5073130;28;20056;-47
2022/07/30 23:56:54;;;;;;;4.25;2.00;;;21.30;58.30;;;;;;5073032;28;20021;-49
2022/07/30 23:59:20;;;;;;;;;;;21.30;58.10;;;;;;5073467;28;20388;-48
